METAR AND TAF INFORMATION
METAR FOR PAMD
ADDS - METARS form results

(0955 UTC 24 May 2019)
Data provider http://aviationweather.gov/metar/data/
 
METAR text: PAMD 240951Z AUTO 35005KT 8SM FEW010 BKN049 OVC070 08/07 A3014 RMK AO2 SLP197 T00780067
Conditions at: PAMD (MIDDLETON ISLAND, AK, US) observed 0951 UTC 24 May 2019
Temperature: 7.8°C (46°F)
Dewpoint: 6.7°C (44°F) [RH = 93%]
Pressure (altimeter): 30.14 inches Hg (1020.7 mb)
[Sea-level pressure: 1019.7 mb]
Winds: from the N (350 degrees) at 6 MPH (5 knots; 2.6 m/s)
Visibility: 8 miles (13 km)
Ceiling: 4900 feet AGL
Clouds: few clouds at 1000 feet AGL
broken clouds at 4900 feet AGL
overcast cloud deck at 7000 feet AGL
Weather: automated observation with no human augmentation;
there may or may not be significant weather present at this time

 AIRPORT MAP

 RUNWAY INFORMATION
Runway 02 Runway length 4178 ft Runway width 115 ft
Runway elevation 100 ft Runway displaced threshold 1020 ft Runway heading 34
Runway 20 Runway length 4178 ft Runway width 115 ft
Runway elevation 100 ft Runway displaced threshold 0 ft Runway heading 214
Runway 13 Runway length 1500 ft Runway width 125 ft
Runway elevation 99 ft Runway displaced threshold 0 ft Runway heading 149
Runway 31 Runway length 1500 ft Runway width 125 ft
Runway elevation 97 ft Runway displaced threshold 0 ft Runway heading 329

 AIRPORT FREQUENCIES

 AIRPORT NEAR NAVIGATION AIDS



Powered by Virtual Airlines Manager [v2.6.2]